Time;durP1;ratioP1;P1;durP2;ratioP2;P2;SDS_P1;SDS_P2;PMS_P1;PMS_P2;Temp;Humidity;BMP_temperature;BMP_pressure;BME280_temperature;BME280_humidity;BME280_pressure;Samples;Min_cycle;Max_cycle;Signal;HPM_P1;HPM_P2
2022/06/24 00:00:09;;;;;;;2.42;1.60;;;22.20;60.30;;;;;;6244918;22;20032;-91
2022/06/24 00:02:37;;;;;;;3.75;1.95;;;22.10;60.70;;;;;;6244727;22;20016;-93
2022/06/24 00:05:09;;;;;;;1.70;1.58;;;22.10;60.90;;;;;;6243600;23;20000;-91
2022/06/24 00:07:49;;;;;;;2.97;1.98;;;22.10;61.10;;;;;;6242774;23;20076;-91
2022/06/24 00:10:18;;;;;;;2.88;1.50;;;22.00;61.20;;;;;;6242928;23;20026;-92
2022/06/24 00:12:48;;;;;;;3.42;1.48;;;22.00;61.70;;;;;;6237625;23;20012;-85
2022/06/24 00:15:15;;;;;;;2.15;1.80;;;22.00;62.30;;;;;;6211106;23;20016;-87
2022/06/24 00:17:41;;;;;;;3.72;2.10;;;21.90;62.20;;;;;;6237523;22;20655;-86
2022/06/24 00:20:15;;;;;;;3.40;1.80;;;21.90;61.70;;;;;;6235548;23;20015;-86
2022/06/24 00:22:52;;;;;;;2.13;1.80;;;21.80;61.60;;;;;;6237641;23;20391;-85
2022/06/24 00:25:19;;;;;;;1.88;1.60;;;21.80;62.30;;;;;;6235668;23;20008;-87
2022/06/24 00:28:05;;;;;;;4.20;1.85;;;21.80;62.70;;;;;;6238991;23;20000;-92
2022/06/24 00:30:38;;;;;;;2.97;1.80;;;21.80;63.00;;;;;;6244630;22;20095;-93
2022/06/24 00:33:13;;;;;;;1.65;1.38;;;21.70;63.20;;;;;;6242840;23;20004;-94
2022/06/24 00:35:47;;;;;;;3.23;1.80;;;21.70;63.30;;;;;;6244728;23;20095;-92
2022/06/24 00:38:30;;;;;;;3.95;2.00;;;21.70;63.10;;;;;;6245735;22;20008;-92
2022/06/24 00:41:04;;;;;;;2.78;2.08;;;21.70;62.80;;;;;;6244635;23;20059;-93
2022/06/24 00:43:43;;;;;;;2.47;2.08;;;21.70;62.50;;;;;;6244884;23;20016;-92
2022/06/24 00:46:23;;;;;;;2.25;1.83;;;21.70;62.30;;;;;;6246337;22;20004;-92
2022/06/24 00:48:51;;;;;;;2.22;1.88;;;21.70;62.50;;;;;;6245787;23;20088;-92
2022/06/24 00:51:20;;;;;;;3.38;1.77;;;21.60;62.70;;;;;;6245312;23;20015;-92
2022/06/24 00:53:48;;;;;;;2.42;2.10;;;21.70;62.60;;;;;;6244507;23;20103;-93
2022/06/24 00:56:20;;;;;;;2.28;1.75;;;21.70;62.90;;;;;;6242205;22;20008;-86
2022/06/24 00:59:00;;;;;;;3.83;1.88;;;21.60;63.30;;;;;;6236820;23;20014;-86
2022/06/24 01:01:37;;;;;;;2.22;2.00;;;21.60;63.00;;;;;;6236437;23;20090;-86
2022/06/24 01:04:07;;;;;;;2.38;1.88;;;21.60;62.80;;;;;;6237978;22;20012;-87
2022/06/24 01:06:36;;;;;;;3.50;1.90;;;21.60;62.80;;;;;;6237165;23;20090;-86
2022/06/24 01:09:03;;;;;;;2.70;2.50;;;21.60;63.00;;;;;;6248296;23;20004;-86
2022/06/24 01:11:40;;;;;;;2.30;1.90;;;21.60;62.90;;;;;;6237423;23;20044;-87
2022/06/24 01:14:07;;;;;;;2.78;1.90;;;21.60;62.90;;;;;;6239693;23;20011;-86
2022/06/24 01:16:34;;;;;;;2.60;1.83;;;21.60;63.30;;;;;;6237394;23;20016;-87
2022/06/24 01:19:06;;;;;;;2.00;1.77;;;21.50;63.20;;;;;;6239197;23;20011;-86
2022/06/24 01:21:43;;;;;;;6.22;1.95;;;21.50;63.50;;;;;;6239023;22;20020;-87
2022/06/24 01:24:12;;;;;;;3.20;2.08;;;21.50;63.50;;;;;;6237904;23;20015;-86
2022/06/24 01:26:42;;;;;;;3.85;2.17;;;21.40;63.10;;;;;;6239313;22;20036;-87
2022/06/24 01:29:08;;;;;;;4.78;2.63;;;21.40;63.00;;;;;;6262221;22;20034;-86
2022/06/24 01:31:35;;;;;;;2.47;2.08;;;21.40;63.20;;;;;;6239333;22;20012;-87
2022/06/24 01:34:01;;;;;;;2.65;2.08;;;21.40;63.30;;;;;;6238603;23;20011;-87
2022/06/24 01:36:27;;;;;;;2.20;2.00;;;21.40;63.70;;;;;;6238561;23;20012;-86
2022/06/24 01:38:53;;;;;;;2.92;2.05;;;21.40;63.60;;;;;;6239175;23;20075;-92
2022/06/24 01:41:20;;;;;;;4.57;2.35;;;21.40;63.20;;;;;;6247277;22;20012;-92
2022/06/24 01:43:45;;;;;;;4.90;2.08;;;21.40;63.00;;;;;;6246563;22;20473;-93
2022/06/24 01:46:12;;;;;;;3.60;2.33;;;21.30;63.10;;;;;;6245738;22;20001;-86
2022/06/24 01:48:39;;;;;;;3.50;2.15;;;21.30;63.50;;;;;;6238395;22;20039;-86
2022/06/24 01:51:06;;;;;;;2.38;2.17;;;21.30;63.40;;;;;;6236571;23;20046;-86
2022/06/24 01:53:32;;;;;;;2.45;2.00;;;21.30;63.20;;;;;;6238290;22;20714;-87
2022/06/24 01:55:58;;;;;;;2.83;2.53;;;21.30;63.00;;;;;;6238784;22;20103;-86
2022/06/24 01:58:24;;;;;;;1.90;1.80;;;21.30;63.20;;;;;;6238303;22;20090;-86
2022/06/24 02:00:50;;;;;;;3.17;2.08;;;21.30;63.40;;;;;;6248175;22;20011;-87
2022/06/24 02:03:16;;;;;;;2.53;2.22;;;21.30;63.70;;;;;;6238498;22;20429;-85
2022/06/24 02:05:45;;;;;;;4.78;2.58;;;21.30;63.60;;;;;;6238760;22;20031;-86
2022/06/24 02:08:11;;;;;;;3.53;2.28;;;21.20;64.10;;;;;;6248830;22;20015;-86
2022/06/24 02:13:29;;;;;;;3.15;2.38;;;21.20;63.70;;;;;;6238839;23;20058;-86
2022/06/24 02:16:02;;;;;;;5.03;2.20;;;21.10;64.00;;;;;;6237238;23;20005;-86
2022/06/24 02:18:29;;;;;;;2.83;2.42;;;21.00;64.00;;;;;;6238203;22;20008;-87
2022/06/24 02:20:56;;;;;;;2.83;2.13;;;21.00;64.30;;;;;;6238394;22;20019;-86
2022/06/24 02:23:22;;;;;;;2.50;2.30;;;21.00;64.40;;;;;;6243995;23;20130;-92
2022/06/24 02:25:49;;;;;;;3.25;2.30;;;21.00;64.80;;;;;;6244781;23;20008;-93
2022/06/24 02:28:15;;;;;;;3.92;2.33;;;20.90;64.80;;;;;;6246027;22;20008;-92
2022/06/24 02:30:42;;;;;;;2.92;2.20;;;20.90;64.80;;;;;;6244839;23;20032;-95
2022/06/24 02:33:09;;;;;;;5.25;2.40;;;20.90;65.00;;;;;;6219012;23;20114;-93
2022/06/24 02:35:36;;;;;;;2.60;2.40;;;20.90;65.10;;;;;;6266862;22;20172;-88
2022/06/24 02:38:02;;;;;;;3.55;2.50;;;20.80;65.40;;;;;;6235916;23;20011;-87
2022/06/24 02:43:22;;;;;;;3.42;2.30;;;20.70;65.60;;;;;;6238117;23;20016;-87
2022/06/24 02:45:53;;;;;;;2.90;2.45;;;20.70;66.00;;;;;;6238657;22;20019;-87
2022/06/24 02:48:21;;;;;;;2.60;2.33;;;20.70;66.40;;;;;;6237695;22;20019;-87
2022/06/24 02:50:51;;;;;;;4.88;2.83;;;20.60;65.70;;;;;;6237942;22;20015;-86
2022/06/24 02:53:19;;;;;;;4.22;2.70;;;20.60;65.80;;;;;;6238238;22;20094;-86
2022/06/24 02:55:47;;;;;;;2.55;2.33;;;20.60;66.10;;;;;;6238199;23;20007;-87
2022/06/24 02:58:13;;;;;;;5.53;2.50;;;20.60;66.10;;;;;;6240468;22;20008;-87
2022/06/24 03:00:41;;;;;;;2.67;2.47;;;20.60;66.20;;;;;;6240746;22;20669;-87
2022/06/24 03:03:08;;;;;;;2.50;2.30;;;20.50;66.30;;;;;;6241780;22;20004;-87
2022/06/24 03:05:35;;;;;;;3.63;2.55;;;20.60;66.40;;;;;;6244757;22;20087;-87
2022/06/24 03:08:01;;;;;;;2.92;2.67;;;20.50;66.20;;;;;;6242078;23;20015;-88
2022/06/24 03:10:27;;;;;;;3.15;2.53;;;20.50;66.50;;;;;;6246211;23;20082;-86
2022/06/24 03:12:53;;;;;;;3.28;2.53;;;20.50;66.60;;;;;;6244705;23;20091;-86
2022/06/24 03:15:19;;;;;;;2.78;2.58;;;20.50;66.70;;;;;;6241046;23;20835;-86
2022/06/24 03:17:46;;;;;;;2.72;2.53;;;20.50;66.70;;;;;;6245196;23;20058;-87
2022/06/24 03:20:12;;;;;;;2.78;2.38;;;20.50;66.70;;;;;;6243186;22;20332;-87
2022/06/24 03:22:39;;;;;;;2.92;2.42;;;20.40;66.90;;;;;;6242075;23;20004;-87
2022/06/24 03:25:06;;;;;;;2.90;2.50;;;20.40;67.20;;;;;;6242718;22;20004;-87
2022/06/24 03:27:32;;;;;;;3.92;2.28;;;20.40;67.30;;;;;;6238645;23;20000;-87
2022/06/24 03:29:58;;;;;;;4.45;2.70;;;20.40;67.60;;;;;;6237798;22;20004;-87
2022/06/24 03:32:24;;;;;;;3.50;2.25;;;20.30;67.60;;;;;;6239498;22;20016;-91
2022/06/24 03:34:51;;;;;;;2.63;2.30;;;20.30;67.60;;;;;;6246028;22;20146;-93
2022/06/24 03:37:17;;;;;;;2.42;2.22;;;20.30;68.00;;;;;;6243483;23;20143;-92
2022/06/24 03:39:43;;;;;;;3.30;2.60;;;20.30;68.20;;;;;;6243722;23;20062;-92
2022/06/24 03:42:09;;;;;;;3.38;2.70;;;20.30;68.10;;;;;;6244489;22;20004;-92
2022/06/24 03:44:35;;;;;;;3.72;2.95;;;20.30;68.20;;;;;;6244185;23;20087;-92
2022/06/24 03:47:01;;;;;;;3.15;2.75;;;20.30;68.40;;;;;;6243459;23;20039;-93
2022/06/24 03:49:27;;;;;;;3.80;2.63;;;20.30;68.50;;;;;;6242947;23;20011;-93
2022/06/24 03:51:54;;;;;;;2.85;2.63;;;20.30;68.60;;;;;;6268652;22;20012;-91
2022/06/24 03:54:20;;;;;;;2.60;2.40;;;20.30;68.60;;;;;;6245117;23;20008;-92
2022/06/24 03:56:46;;;;;;;2.65;2.30;;;20.40;68.60;;;;;;6243023;23;20019;-94
2022/06/24 03:59:15;;;;;;;5.50;2.95;;;20.40;68.50;;;;;;6240312;22;20016;-86
2022/06/24 04:01:40;;;;;;;3.35;2.38;;;20.40;67.70;;;;;;6234957;23;20579;-87
2022/06/24 04:04:06;;;;;;;4.53;2.95;;;20.50;67.90;;;;;;6235513;23;20010;-86
2022/06/24 04:06:32;;;;;;;4.22;2.95;;;20.50;68.00;;;;;;6236861;22;20007;-88
2022/06/24 04:08:58;;;;;;;2.92;2.45;;;20.50;68.10;;;;;;6237502;22;20008;-87
2022/06/24 04:11:27;;;;;;;6.13;2.70;;;20.50;68.00;;;;;;6237491;23;20626;-86
2022/06/24 04:13:56;;;;;;;2.58;2.38;;;20.50;68.10;;;;;;6263545;22;20012;-87
2022/06/24 04:16:22;;;;;;;4.38;2.90;;;20.60;68.20;;;;;;6240048;23;20084;-86
2022/06/24 04:18:50;;;;;;;6.15;2.75;;;20.60;67.80;;;;;;6263038;22;20015;-86
2022/06/24 04:21:17;;;;;;;3.45;2.60;;;20.70;67.50;;;;;;6239235;23;20012;-87
2022/06/24 04:23:45;;;;;;;5.35;3.08;;;20.70;66.80;;;;;;6239026;22;20004;-87
2022/06/24 04:26:12;;;;;;;6.65;2.97;;;20.70;66.90;;;;;;6239115;22;20012;-87
2022/06/24 04:28:38;;;;;;;5.65;2.97;;;20.70;66.70;;;;;;6239111;22;20102;-87
2022/06/24 04:31:05;;;;;;;3.33;2.90;;;20.80;66.40;;;;;;6241573;22;20022;-95
2022/06/24 04:33:31;;;;;;;5.38;2.72;;;20.90;66.00;;;;;;6245643;23;20012;-93
2022/06/24 04:35:57;;;;;;;6.72;3.10;;;20.90;66.10;;;;;;6244915;23;20061;-92
2022/06/24 04:38:23;;;;;;;3.55;2.70;;;20.90;66.10;;;;;;6246343;22;20012;-93
2022/06/24 04:40:49;;;;;;;2.63;2.42;;;20.90;66.20;;;;;;6244741;23;20008;-94
2022/06/24 04:43:15;;;;;;;3.20;2.60;;;21.00;66.40;;;;;;6246376;22;20004;-94
2022/06/24 04:45:44;;;;;;;3.38;2.65;;;21.00;66.40;;;;;;6247007;22;20050;-93
2022/06/24 04:48:10;;;;;;;5.75;2.95;;;21.10;66.30;;;;;;6247077;22;20009;-93
2022/06/24 04:50:39;;;;;;;6.35;2.67;;;21.10;66.80;;;;;;6245105;23;20004;-93
2022/06/24 04:53:05;;;;;;;4.05;2.72;;;21.20;65.90;;;;;;6240159;23;20095;-87
2022/06/24 04:55:31;;;;;;;5.13;2.60;;;21.20;65.50;;;;;;6219965;23;20038;-91
2022/06/24 04:57:57;;;;;;;4.45;2.50;;;21.30;65.60;;;;;;6245675;23;20409;-93
2022/06/24 05:00:27;;;;;;;2.70;2.50;;;21.30;65.60;;;;;;6246217;22;20455;-94
2022/06/24 05:02:53;;;;;;;8.52;2.58;;;21.40;65.00;;;;;;6246807;23;20004;-93
2022/06/24 05:05:19;;;;;;;2.75;2.47;;;21.50;64.30;;;;;;6245416;23;20474;-93
2022/06/24 05:07:48;;;;;;;2.63;2.38;;;21.50;64.20;;;;;;6244891;23;20008;-94
2022/06/24 05:10:14;;;;;;;7.32;2.58;;;21.60;64.10;;;;;;6246726;22;20004;-94
2022/06/24 05:12:40;;;;;;;5.65;2.70;;;21.60;63.70;;;;;;6246447;22;20019;-93
2022/06/24 05:15:10;;;;;;;2.95;2.38;;;21.60;64.00;;;;;;6246029;22;20459;-94
2022/06/24 05:17:35;;;;;;;3.35;2.70;;;21.70;63.90;;;;;;6244905;23;20024;-93
2022/06/24 05:20:02;;;;;;;5.13;2.88;;;21.80;63.60;;;;;;6237132;23;20617;-86
2022/06/24 05:22:28;;;;;;;4.80;2.80;;;21.80;63.40;;;;;;6236462;23;20103;-86
2022/06/24 05:24:56;;;;;;;3.10;2.47;;;21.90;63.40;;;;;;6238342;22;20038;-88
2022/06/24 05:27:22;;;;;;;4.65;2.78;;;22.00;63.40;;;;;;6236137;23;20012;-86
2022/06/24 05:29:48;;;;;;;5.25;2.45;;;22.10;62.70;;;;;;6241096;23;20008;-93
2022/06/24 05:32:15;;;;;;;3.78;2.67;;;22.20;62.90;;;;;;6244877;23;20012;-92
2022/06/24 05:34:41;;;;;;;6.97;2.97;;;22.20;63.00;;;;;;6244122;23;20004;-92
2022/06/24 05:37:07;;;;;;;3.38;2.50;;;22.30;62.40;;;;;;6244299;23;20008;-93
2022/06/24 05:39:33;;;;;;;3.95;2.58;;;22.20;62.50;;;;;;6245675;22;20166;-93
2022/06/24 05:42:01;;;;;;;5.47;2.70;;;22.30;62.40;;;;;;6269452;22;20015;-91
2022/06/24 05:44:27;;;;;;;5.93;2.75;;;22.30;62.50;;;;;;6245262;22;20015;-94
2022/06/24 05:46:55;;;;;;;4.40;2.25;;;22.30;62.40;;;;;;6243805;23;20004;-92
2022/06/24 05:49:22;;;;;;;4.68;2.90;;;22.40;62.40;;;;;;6245337;22;20000;-92
2022/06/24 05:51:48;;;;;;;5.28;2.67;;;22.40;62.30;;;;;;6244781;23;20061;-94
2022/06/24 05:56:58;;;;;;;6.00;2.53;;;22.60;62.60;;;;;;6244623;23;20043;-93
2022/06/24 05:59:24;;;;;;;3.58;2.90;;;22.70;61.90;;;;;;6244505;23;20000;-93
2022/06/24 06:01:50;;;;;;;4.38;3.13;;;22.80;61.80;;;;;;6245812;22;20022;-92
2022/06/24 06:04:16;;;;;;;4.05;2.70;;;22.80;61.50;;;;;;6246384;22;20004;-92
2022/06/24 06:06:42;;;;;;;4.88;2.78;;;23.00;61.50;;;;;;6244836;23;20004;-93
2022/06/24 06:09:08;;;;;;;3.90;2.67;;;23.10;61.00;;;;;;6243539;23;20747;-87
2022/06/24 06:11:34;;;;;;;4.45;2.80;;;23.10;60.50;;;;;;6238057;22;20019;-89
2022/06/24 06:14:00;;;;;;;3.80;2.35;;;23.20;60.30;;;;;;6236784;23;20016;-87
2022/06/24 06:16:27;;;;;;;6.28;2.63;;;23.30;60.70;;;;;;6262369;22;20067;-87
2022/06/24 06:18:53;;;;;;;3.30;2.40;;;23.50;60.10;;;;;;6238539;22;20016;-88
2022/06/24 06:21:19;;;;;;;4.72;3.13;;;23.60;59.70;;;;;;6236616;23;20019;-87
2022/06/24 06:23:45;;;;;;;3.13;2.65;;;23.60;60.10;;;;;;6236297;23;20099;-88
2022/06/24 06:26:14;;;;;;;10.10;3.60;;;23.70;59.00;;;;;;6238470;22;20067;-87
2022/06/24 06:28:41;;;;;;;5.10;2.60;;;23.80;59.00;;;;;;6239708;23;20034;-94
2022/06/24 06:31:09;;;;;;;4.15;3.15;;;23.90;58.40;;;;;;6243906;23;20008;-93
2022/06/24 06:33:35;;;;;;;5.88;2.78;;;23.90;58.20;;;;;;6244453;23;20019;-93
2022/06/24 06:36:04;;;;;;;3.15;2.67;;;24.00;59.10;;;;;;6243623;23;20447;-91
2022/06/24 06:38:30;;;;;;;4.07;2.92;;;24.00;57.70;;;;;;6245526;22;20426;-92
2022/06/24 06:40:56;;;;;;;4.80;3.03;;;24.10;58.00;;;;;;6243044;23;20090;-93
2022/06/24 06:43:22;;;;;;;3.38;2.60;;;24.20;58.20;;;;;;6241287;23;20440;-89
2022/06/24 06:45:47;;;;;;;3.85;2.58;;;24.30;58.10;;;;;;6208746;23;20706;-92
2022/06/24 06:48:16;;;;;;;5.13;2.72;;;24.40;57.40;;;;;;6243318;23;20027;-93
2022/06/24 06:50:42;;;;;;;6.18;3.20;;;24.40;57.60;;;;;;6244449;22;20083;-94
2022/06/24 06:53:08;;;;;;;2.90;2.70;;;24.60;57.00;;;;;;6239254;23;20097;-88
2022/06/24 06:55:34;;;;;;;9.13;2.60;;;24.70;56.80;;;;;;6235200;22;20329;-88
2022/06/24 06:58:00;;;;;;;7.18;2.83;;;24.80;55.80;;;;;;6236287;22;20095;-87
2022/06/24 07:00:26;;;;;;;5.72;2.60;;;24.90;55.60;;;;;;6237256;22;20035;-87
2022/06/24 07:02:52;;;;;;;3.25;2.67;;;25.00;55.70;;;;;;6237405;22;20463;-88
2022/06/24 07:05:18;;;;;;;3.75;2.85;;;25.00;55.90;;;;;;6235620;23;20008;-87
2022/06/24 07:07:44;;;;;;;3.20;2.60;;;25.10;55.60;;;;;;6237680;22;20017;-87
2022/06/24 07:10:10;;;;;;;5.55;2.60;;;25.20;54.40;;;;;;6237148;23;20016;-87
2022/06/24 07:12:36;;;;;;;4.05;2.78;;;25.20;54.90;;;;;;6237256;22;20362;-88
2022/06/24 07:15:02;;;;;;;3.53;2.17;;;25.30;53.90;;;;;;6235920;23;20015;-88
2022/06/24 07:17:28;;;;;;;5.95;2.90;;;25.50;54.30;;;;;;6238780;22;20083;-87
2022/06/24 07:19:54;;;;;;;5.22;2.80;;;25.50;53.70;;;;;;6237922;23;20387;-87
2022/06/24 07:22:20;;;;;;;4.45;2.83;;;25.60;53.30;;;;;;6248128;22;20008;-89
2022/06/24 07:24:46;;;;;;;5.70;2.60;;;25.70;52.70;;;;;;6236661;23;20023;-87
2022/06/24 07:27:11;;;;;;;4.30;2.97;;;25.70;52.40;;;;;;6236449;23;20005;-87
2022/06/24 07:29:37;;;;;;;3.80;2.67;;;25.80;53.10;;;;;;6240709;22;20009;-87
2022/06/24 07:32:06;;;;;;;5.47;3.00;;;25.90;53.50;;;;;;6243184;23;20008;-88
2022/06/24 07:34:33;;;;;;;3.75;2.63;;;26.10;52.80;;;;;;6250986;22;20452;-94
2022/06/24 07:37:01;;;;;;;2.58;2.38;;;26.20;52.30;;;;;;6247387;22;20088;-93
2022/06/24 07:39:27;;;;;;;2.65;2.20;;;26.40;51.80;;;;;;6246085;22;20008;-95
2022/06/24 07:41:54;;;;;;;3.35;2.05;;;26.50;51.30;;;;;;6244673;23;20030;-95
2022/06/24 07:44:22;;;;;;;2.78;2.47;;;26.70;51.20;;;;;;6243136;22;20011;-93
2022/06/24 07:46:49;;;;;;;4.35;2.50;;;26.70;50.30;;;;;;6238677;23;20004;-93
2022/06/24 07:49:16;;;;;;;3.42;2.13;;;26.70;50.60;;;;;;6239407;23;20103;-95
2022/06/24 07:51:42;;;;;;;2.80;1.98;;;26.80;51.30;;;;;;6240694;22;20008;-94
2022/06/24 07:54:08;;;;;;;5.45;2.30;;;26.90;50.00;;;;;;6244161;23;20031;-93
2022/06/24 07:59:19;;;;;;;8.68;2.20;;;27.00;49.10;;;;;;6245179;23;20058;-94
2022/06/24 08:01:45;;;;;;;4.28;2.20;;;26.90;49.70;;;;;;6244610;23;20017;-93
2022/06/24 08:04:11;;;;;;;4.90;2.88;;;27.00;49.80;;;;;;6245420;22;20018;-93
2022/06/24 08:06:39;;;;;;;4.80;2.42;;;27.10;50.10;;;;;;6244615;22;20091;-95
2022/06/24 08:09:06;;;;;;;3.42;2.00;;;27.20;48.80;;;;;;6243913;23;20004;-93
2022/06/24 08:11:33;;;;;;;3.92;1.90;;;27.30;48.50;;;;;;6245139;22;20424;-93
2022/06/24 08:13:59;;;;;;;6.80;2.17;;;27.50;47.20;;;;;;6245426;22;20015;-94
2022/06/24 08:16:25;;;;;;;1.73;1.60;;;27.50;46.80;;;;;;6245247;22;20007;-91
2022/06/24 08:18:52;;;;;;;5.05;2.35;;;27.60;46.90;;;;;;6245053;22;20340;-92
2022/06/24 08:21:21;;;;;;;2.45;1.70;;;27.60;45.90;;;;;;6245101;22;20023;-93
2022/06/24 08:23:47;;;;;;;4.93;1.67;;;27.60;46.00;;;;;;6242983;23;20004;-94
2022/06/24 08:26:13;;;;;;;3.83;2.00;;;27.60;46.10;;;;;;6244452;22;20005;-95
2022/06/24 08:28:39;;;;;;;2.78;1.80;;;27.80;45.10;;;;;;6241672;22;20005;-95
2022/06/24 08:31:05;;;;;;;5.43;1.73;;;27.90;44.80;;;;;;6244553;23;20061;-92
2022/06/24 08:33:31;;;;;;;3.47;1.60;;;27.90;45.00;;;;;;6242522;23;20004;-94
2022/06/24 08:35:57;;;;;;;3.13;1.70;;;28.00;45.30;;;;;;6243161;23;20000;-92
2022/06/24 08:38:23;;;;;;;4.63;1.95;;;28.10;44.10;;;;;;6235836;23;20085;-88
2022/06/24 08:40:53;;;;;;;4.20;1.98;;;28.10;44.10;;;;;;6236325;22;20011;-87
2022/06/24 08:43:21;;;;;;;3.05;1.48;;;28.10;44.20;;;;;;6236151;22;20093;-87
2022/06/24 08:45:48;;;;;;;2.25;1.60;;;28.20;43.90;;;;;;6260537;22;20011;-89
2022/06/24 08:48:14;;;;;;;4.05;1.83;;;28.30;43.70;;;;;;6236211;22;20008;-90
2022/06/24 08:50:40;;;;;;;5.70;1.73;;;28.30;43.50;;;;;;6239008;23;20073;-94
2022/06/24 08:53:09;;;;;;;6.03;1.75;;;28.40;44.20;;;;;;6236632;22;20732;-88
2022/06/24 08:55:40;;;;;;;2.75;1.80;;;28.60;43.10;;;;;;6237016;22;20644;-88
2022/06/24 08:58:11;;;;;;;2.15;1.58;;;28.70;43.50;;;;;;6238447;22;20039;-95
2022/06/24 09:00:38;;;;;;;4.55;1.75;;;28.80;42.90;;;;;;6245298;23;20004;-94
2022/06/24 09:03:06;;;;;;;4.78;1.80;;;28.90;42.90;;;;;;6244878;23;20087;-96
2022/06/24 09:05:32;;;;;;;5.13;2.45;;;29.10;41.40;;;;;;6246569;22;20000;-94
2022/06/24 09:08:12;;;;;;;6.40;1.65;;;29.20;42.30;;;;;;6245211;23;20009;-89
2022/06/24 09:10:40;;;;;;;3.38;1.67;;;29.40;42.10;;;;;;6245959;23;20007;-93
2022/06/24 09:13:06;;;;;;;1.95;1.63;;;29.20;40.80;;;;;;6245140;23;20004;-94
2022/06/24 09:15:32;;;;;;;5.80;1.95;;;29.20;41.60;;;;;;6246048;22;20035;-92
2022/06/24 09:18:00;;;;;;;2.78;1.90;;;29.30;41.30;;;;;;6244564;23;20011;-87
2022/06/24 09:20:30;;;;;;;3.13;1.60;;;29.40;41.90;;;;;;6238080;22;20635;-87
2022/06/24 09:23:10;;;;;;;3.05;1.90;;;29.50;40.90;;;;;;6237992;22;20031;-87
2022/06/24 09:25:57;;;;;;;4.88;1.98;;;29.60;40.20;;;;;;6238513;22;20035;-86
2022/06/24 09:28:24;;;;;;;2.47;1.95;;;29.60;41.10;;;;;;6238303;22;20010;-87
2022/06/24 09:30:58;;;;;;;4.25;1.50;;;29.70;41.00;;;;;;6236582;23;20225;-88
2022/06/24 09:33:24;;;;;;;4.68;1.90;;;29.80;41.00;;;;;;6238008;22;20091;-86
2022/06/24 09:36:01;;;;;;;2.58;1.65;;;29.90;40.00;;;;;;6238561;22;20035;-86
2022/06/24 09:38:27;;;;;;;3.53;1.85;;;29.80;39.60;;;;;;6246232;23;20008;-86
2022/06/24 09:41:04;;;;;;;2.10;1.90;;;29.70;40.40;;;;;;6238799;22;20458;-89
2022/06/24 09:43:31;;;;;;;2.20;1.80;;;29.60;39.90;;;;;;6236297;23;20749;-86
2022/06/24 09:45:58;;;;;;;4.35;2.25;;;29.70;39.90;;;;;;6240181;23;20135;-87
2022/06/24 09:48:37;;;;;;;4.35;1.98;;;29.70;40.10;;;;;;6241994;22;20015;-87
2022/06/24 09:51:05;;;;;;;2.17;1.65;;;29.70;40.60;;;;;;6239142;23;20028;-86
2022/06/24 09:53:36;;;;;;;5.07;1.52;;;29.70;39.90;;;;;;6238856;22;20020;-86
2022/06/24 09:56:07;;;;;;;6.25;1.70;;;29.70;39.90;;;;;;6236182;23;20008;-87
2022/06/24 09:58:39;;;;;;;4.85;1.67;;;29.90;40.00;;;;;;6235064;23;20015;-87
2022/06/24 10:01:06;;;;;;;2.58;1.90;;;30.00;39.90;;;;;;6237093;22;20069;-86
2022/06/24 10:03:34;;;;;;;4.60;1.80;;;30.10;39.60;;;;;;6236656;22;20095;-88
2022/06/24 10:06:04;;;;;;;2.97;1.67;;;30.10;39.50;;;;;;6237993;22;20000;-88
2022/06/24 10:08:33;;;;;;;3.28;1.60;;;30.00;38.90;;;;;;6238437;22;20008;-86
2022/06/24 10:11:00;;;;;;;4.88;2.05;;;30.20;39.50;;;;;;6238326;22;20012;-87
2022/06/24 10:13:33;;;;;;;1.88;1.58;;;30.20;39.30;;;;;;6238232;22;20018;-87
2022/06/24 10:16:02;;;;;;;3.13;1.50;;;30.20;39.00;;;;;;6238588;22;20008;-86
2022/06/24 10:18:34;;;;;;;2.88;2.17;;;30.30;38.80;;;;;;6209979;23;20062;-86
2022/06/24 10:21:03;;;;;;;3.50;1.88;;;30.40;38.80;;;;;;6238483;22;20004;-88
2022/06/24 10:23:36;;;;;;;3.75;1.65;;;30.30;39.10;;;;;;6244454;22;20012;-95
2022/06/24 10:26:31;;;;;;;3.63;1.73;;;30.40;39.50;;;;;;6246064;22;20024;-94
2022/06/24 10:29:03;;;;;;;2.33;1.88;;;30.50;37.30;;;;;;6245664;22;20095;-94
2022/06/24 10:34:28;;;;;;;4.18;2.15;;;30.40;38.40;;;;;;6245558;23;20008;-92
2022/06/24 10:37:16;;;;;;;4.00;1.60;;;30.50;38.30;;;;;;6246141;22;20012;-92
2022/06/24 10:39:51;;;;;;;8.13;1.77;;;30.50;38.80;;;;;;6245213;23;20062;-93
2022/06/24 10:42:26;;;;;;;2.93;1.77;;;30.50;38.20;;;;;;6246635;22;20012;-94
2022/06/24 10:44:58;;;;;;;4.18;1.83;;;30.50;37.30;;;;;;6246746;22;20247;-95
2022/06/24 10:47:36;;;;;;;1.77;1.50;;;30.50;38.40;;;;;;6246650;22;20055;-94
2022/06/24 10:50:03;;;;;;;3.60;1.73;;;30.60;38.20;;;;;;6245993;22;20008;-93
2022/06/24 10:52:33;;;;;;;2.25;1.45;;;30.70;38.20;;;;;;6245506;22;20008;-91
2022/06/24 10:55:18;;;;;;;4.28;1.48;;;30.90;38.30;;;;;;6244256;23;20012;-94
2022/06/24 10:57:45;;;;;;;3.80;1.52;;;31.00;37.90;;;;;;6245049;23;20019;-93
2022/06/24 11:00:20;;;;;;;2.67;1.50;;;31.20;37.80;;;;;;6245933;22;20011;-94
2022/06/24 11:03:05;;;;;;;4.70;1.85;;;31.10;37.00;;;;;;6246552;22;20168;-93
2022/06/24 11:05:36;;;;;;;6.43;1.55;;;31.00;38.00;;;;;;6245245;23;20058;-94
2022/06/24 11:08:14;;;;;;;3.40;1.98;;;31.00;37.30;;;;;;6243434;23;20062;-94
2022/06/24 11:10:41;;;;;;;3.17;1.60;;;30.90;37.80;;;;;;6245531;22;20011;-94
2022/06/24 11:13:08;;;;;;;3.90;1.45;;;30.90;37.40;;;;;;6246066;22;20008;-92
2022/06/24 11:15:40;;;;;;;2.58;1.67;;;30.90;36.90;;;;;;6244790;22;20016;-91
2022/06/24 11:18:16;;;;;;;3.15;1.77;;;30.90;37.00;;;;;;6244463;22;20016;-87
2022/06/24 11:20:55;;;;;;;2.88;1.90;;;30.90;36.50;;;;;;6238972;23;20015;-87
2022/06/24 11:23:23;;;;;;;4.28;1.42;;;30.80;36.40;;;;;;6237835;22;20016;-87
2022/06/24 11:25:55;;;;;;;1.85;1.42;;;30.90;37.60;;;;;;6238435;22;20000;-88
2022/06/24 11:28:28;;;;;;;3.30;1.70;;;31.00;36.40;;;;;;6210503;23;20024;-89
2022/06/24 11:31:13;;;;;;;2.55;1.58;;;31.10;36.70;;;;;;6236686;23;20012;-90
2022/06/24 11:33:39;;;;;;;3.85;2.10;;;31.20;35.90;;;;;;6237421;23;20023;-86
2022/06/24 11:36:05;;;;;;;3.13;1.60;;;31.20;36.40;;;;;;6239123;22;20011;-88
2022/06/24 11:38:36;;;;;;;6.68;1.42;;;31.20;35.70;;;;;;6241930;23;20336;-92
2022/06/24 11:41:02;;;;;;;1.83;1.50;;;31.10;35.70;;;;;;6244907;22;20019;-93
2022/06/24 11:43:28;;;;;;;3.58;1.58;;;31.10;35.60;;;;;;6245349;22;20004;-94
2022/06/24 11:45:57;;;;;;;2.30;1.67;;;31.10;35.80;;;;;;6244138;23;20092;-93
2022/06/24 11:48:24;;;;;;;3.97;1.88;;;31.20;36.40;;;;;;6246975;22;20020;-92
2022/06/24 11:50:52;;;;;;;3.10;1.20;;;31.20;36.40;;;;;;6244360;23;20050;-93
2022/06/24 11:53:25;;;;;;;1.80;1.40;;;31.30;36.00;;;;;;6249937;23;20015;-94
2022/06/24 11:55:53;;;;;;;3.05;1.60;;;31.40;35.90;;;;;;6245784;23;20016;-92
2022/06/24 11:58:21;;;;;;;3.58;1.50;;;31.50;35.50;;;;;;6218477;23;20008;-87
2022/06/24 12:00:48;;;;;;;2.20;1.52;;;31.60;34.80;;;;;;6238564;22;20036;-86
2022/06/24 12:03:14;;;;;;;2.10;1.48;;;31.90;35.00;;;;;;6241432;22;20040;-87
2022/06/24 12:05:44;;;;;;;6.22;1.55;;;32.10;34.60;;;;;;6237341;23;20551;-90
2022/06/24 12:08:11;;;;;;;3.20;1.50;;;32.20;34.20;;;;;;6237582;22;20007;-90
2022/06/24 12:10:51;;;;;;;3.60;1.50;;;32.30;34.20;;;;;;6261124;22;20008;-90
2022/06/24 12:13:29;;;;;;;5.25;1.90;;;32.20;33.80;;;;;;6237881;23;20015;-89
2022/06/24 12:15:56;;;;;;;1.48;1.23;;;32.20;34.00;;;;;;6211815;23;20103;-90
2022/06/24 12:18:23;;;;;;;2.17;1.20;;;32.30;33.60;;;;;;6236713;23;20012;-92
2022/06/24 12:21:04;;;;;;;2.53;1.42;;;32.20;33.20;;;;;;6238352;22;20159;-89
2022/06/24 12:23:32;;;;;;;2.00;1.25;;;32.20;33.50;;;;;;6238601;22;20016;-89
2022/06/24 12:25:58;;;;;;;1.25;1.13;;;32.10;32.90;;;;;;6235445;23;20004;-88
2022/06/24 12:28:28;;;;;;;3.25;1.20;;;31.90;31.50;;;;;;6237520;23;20019;-88
2022/06/24 12:31:04;;;;;;;2.35;1.30;;;31.70;32.10;;;;;;6239508;22;20127;-93
2022/06/24 12:33:40;;;;;;;1.25;1.10;;;31.70;33.00;;;;;;6248323;22;20016;-92
2022/06/24 12:36:11;;;;;;;3.15;1.45;;;31.70;33.90;;;;;;6246646;23;20011;-95
2022/06/24 12:38:45;;;;;;;6.15;1.33;;;31.70;34.20;;;;;;6245800;23;20012;-94
2022/06/24 12:41:16;;;;;;;4.63;1.20;;;31.90;34.00;;;;;;6246043;23;20015;-92
2022/06/24 12:43:59;;;;;;;3.40;1.13;;;31.90;30.90;;;;;;6241565;22;20004;-88
2022/06/24 12:46:37;;;;;;;1.95;0.95;;;31.70;30.00;;;;;;6242696;22;20015;-91
2022/06/24 12:51:58;;;;;;;1.50;1.08;;;31.50;31.10;;;;;;6247556;23;20027;-94
2022/06/24 12:54:24;;;;;;;2.83;1.15;;;31.50;31.60;;;;;;6221023;23;20028;-91
2022/06/24 12:56:51;;;;;;;2.00;1.10;;;31.50;31.80;;;;;;6246974;22;20008;-93
2022/06/24 12:59:17;;;;;;;2.17;1.10;;;31.60;31.70;;;;;;6244670;23;20008;-93
2022/06/24 13:01:46;;;;;;;3.97;1.50;;;31.70;31.30;;;;;;6244438;23;20012;-91
2022/06/24 13:04:13;;;;;;;31.17;3.85;;;31.70;31.80;;;;;;6245018;23;20020;-94
2022/06/24 13:06:40;;;;;;;7.07;1.77;;;31.70;32.90;;;;;;6245174;23;20004;-93
2022/06/24 13:09:07;;;;;;;5.20;1.80;;;31.80;31.80;;;;;;6246515;22;20126;-93
2022/06/24 13:11:34;;;;;;;1.50;1.27;;;31.70;31.90;;;;;;6246709;22;20015;-92